Time;durP1;ratioP1;P1;durP2;ratioP2;P2;SDS_P1;SDS_P2;PMS_P1;PMS_P2;Temp;Humidity;BMP_temperature;BMP_pressure;BME280_temperature;BME280_humidity;BME280_pressure;Samples;Min_cycle;Max_cycle;Signal;HPM_P1;HPM_P2
2021/03/17 00:00:20;;;;;;;5.80;3.07;;;5.50;99.90;;;;;;5078559;28;20512;-57
2021/03/17 00:02:46;;;;;;;7.23;3.50;;;5.60;99.90;;;;;;5075059;28;20196;-56
2021/03/17 00:05:13;;;;;;;3.83;3.27;;;5.60;99.90;;;;;;5082762;28;20443;-56
2021/03/17 00:07:39;;;;;;;6.10;3.30;;;5.60;99.90;;;;;;5079447;28;20578;-56
2021/03/17 00:10:05;;;;;;;8.23;3.70;;;5.60;99.90;;;;;;5074241;28;20532;-56
2021/03/17 00:12:31;;;;;;;5.83;3.13;;;5.60;99.90;;;;;;5081109;28;20218;-56
2021/03/17 00:14:56;;;;;;;7.67;3.20;;;5.70;99.90;;;;;;5074245;28;20433;-56
2021/03/17 00:17:22;;;;;;;4.20;3.00;;;5.70;99.90;;;;;;5077526;28;20183;-56
2021/03/17 00:19:48;;;;;;;7.80;3.73;;;5.60;99.90;;;;;;5085856;28;20281;-56
2021/03/17 00:22:15;;;;;;;8.67;4.00;;;5.60;99.90;;;;;;5080479;28;20192;-56
2021/03/17 00:24:40;;;;;;;7.77;4.30;;;5.70;99.90;;;;;;5080421;28;20460;-56
2021/03/17 00:27:06;;;;;;;5.73;4.20;;;5.70;99.90;;;;;;5081199;28;20952;-56
2021/03/17 00:29:32;;;;;;;9.50;5.13;;;5.70;99.90;;;;;;5076214;28;20225;-56
2021/03/17 00:31:57;;;;;;;6.30;3.90;;;5.70;99.90;;;;;;5079069;28;20488;-57
2021/03/17 00:34:23;;;;;;;8.00;3.63;;;5.70;99.90;;;;;;5070616;28;20183;-56
2021/03/17 00:36:48;;;;;;;5.40;3.47;;;5.80;99.90;;;;;;5075828;28;20194;-56
2021/03/17 00:39:14;;;;;;;4.67;3.50;;;5.80;99.90;;;;;;5078066;28;20186;-56
2021/03/17 00:41:40;;;;;;;6.90;3.70;;;5.80;99.90;;;;;;5082572;28;20188;-57
2021/03/17 00:44:05;;;;;;;4.87;3.27;;;5.80;99.90;;;;;;5078681;28;20221;-56
2021/03/17 00:46:31;;;;;;;7.60;4.30;;;5.80;99.90;;;;;;5084338;28;20679;-56
2021/03/17 00:48:57;;;;;;;6.40;3.47;;;7.30;99.90;;;;;;5079269;28;20191;-56
2021/03/17 00:51:22;;;;;;;7.17;3.63;;;5.90;99.90;;;;;;5071020;28;20210;-56
2021/03/17 00:53:49;;;;;;;7.70;3.90;;;5.90;99.90;;;;;;5093030;28;20544;-56
2021/03/17 00:56:14;;;;;;;8.50;3.80;;;5.80;99.90;;;;;;5080357;28;20222;-56
2021/03/17 00:58:40;;;;;;;9.50;4.07;;;5.80;99.90;;;;;;5088696;28;20472;-56
2021/03/17 01:01:05;;;;;;;6.83;4.10;;;5.80;99.90;;;;;;5076303;28;20210;-56
2021/03/17 01:03:31;;;;;;;11.57;4.43;;;5.90;99.90;;;;;;5074016;28;20548;-56
2021/03/17 01:05:57;;;;;;;9.43;4.00;;;6.00;99.90;;;;;;5073958;28;20221;-56
2021/03/17 01:08:22;;;;;;;5.43;3.37;;;5.90;99.90;;;;;;5080545;28;20198;-57
2021/03/17 01:10:49;;;;;;;7.17;4.13;;;5.80;99.90;;;;;;5080573;28;20198;-56
2021/03/17 01:13:15;;;;;;;8.23;3.67;;;5.80;99.90;;;;;;5073722;28;20529;-56
2021/03/17 01:15:41;;;;;;;5.13;4.10;;;5.80;99.90;;;;;;5075352;28;20492;-56
2021/03/17 01:18:07;;;;;;;6.90;4.90;;;5.80;99.90;;;;;;5072358;28;20445;-56
2021/03/17 01:20:34;;;;;;;11.90;4.93;;;5.70;99.90;;;;;;5081819;28;20440;-56
2021/03/17 01:23:00;;;;;;;6.67;4.27;;;5.60;99.90;;;;;;5081861;28;20183;-56
2021/03/17 01:25:38;;;;;;;6.20;4.07;;;5.70;99.90;;;;;;5086725;28;20520;-56
2021/03/17 01:28:06;;;;;;;7.00;4.17;;;5.60;99.90;;;;;;5084537;28;20187;-56
2021/03/17 01:30:39;;;;;;;7.53;3.73;;;5.60;99.90;;;;;;5078184;28;20812;-57
2021/03/17 01:33:06;;;;;;;9.43;4.80;;;5.50;99.90;;;;;;5073274;28;20480;-56
2021/03/17 01:35:32;;;;;;;13.13;4.80;;;5.50;99.90;;;;;;5078803;28;20776;-56
2021/03/17 01:37:57;;;;;;;7.77;6.33;;;5.50;99.90;;;;;;5082688;28;20503;-57
2021/03/17 01:40:26;;;;;;;6.10;5.03;;;5.40;99.90;;;;;;5082023;28;20494;-56
2021/03/17 01:42:52;;;;;;;10.17;6.20;;;5.40;99.90;;;;;;5076395;28;20179;-57
2021/03/17 01:45:18;;;;;;;11.93;6.10;;;5.30;99.90;;;;;;5078746;28;20825;-57
2021/03/17 01:47:46;;;;;;;10.00;4.87;;;5.40;99.90;;;;;;5069553;28;20446;-56
2021/03/17 01:50:23;;;;;;;8.50;4.73;;;5.30;99.90;;;;;;5080921;28;20524;-56
2021/03/17 01:52:49;;;;;;;6.13;5.50;;;5.10;99.90;;;;;;5081430;28;20559;-56
2021/03/17 01:55:16;;;;;;;5.20;4.63;;;5.10;99.90;;;;;;5085346;28;20552;-56
2021/03/17 01:57:42;;;;;;;7.53;5.33;;;5.00;99.90;;;;;;5081386;28;20501;-58
2021/03/17 02:00:11;;;;;;;9.70;6.47;;;5.00;99.90;;;;;;5074814;28;22125;-56
2021/03/17 02:02:40;;;;;;;9.60;5.60;;;4.90;99.90;;;;;;5079385;28;20452;-56
2021/03/17 02:05:10;;;;;;;8.90;5.70;;;4.90;99.90;;;;;;5085943;28;20547;-56
2021/03/17 02:07:36;;;;;;;9.70;5.87;;;4.80;99.90;;;;;;5072901;28;20445;-56
2021/03/17 02:10:15;;;;;;;7.80;5.30;;;4.70;99.90;;;;;;5079987;28;21037;-57
2021/03/17 02:12:47;;;;;;;8.20;4.77;;;4.70;99.90;;;;;;5076334;28;20209;-56
2021/03/17 02:15:38;;;;;;;10.60;6.70;;;4.80;99.90;;;;;;5074041;28;20492;-56
2021/03/17 02:18:20;;;;;;;10.03;4.77;;;4.70;99.90;;;;;;5075767;28;20993;-56
2021/03/17 02:21:12;;;;;;;9.63;5.40;;;4.70;99.90;;;;;;5072613;28;20429;-56
2021/03/17 02:24:06;;;;;;;10.87;5.80;;;4.80;99.90;;;;;;5078548;28;20471;-56
2021/03/17 02:26:59;;;;;;;10.57;6.53;;;4.90;99.90;;;;;;5078432;28;20799;-56
2021/03/17 02:29:53;;;;;;;9.43;5.30;;;4.90;99.90;;;;;;5064044;28;21049;-56
2021/03/17 02:32:37;;;;;;;9.40;6.63;;;5.00;99.90;;;;;;5048893;28;20469;-56
2021/03/17 02:35:05;;;;;;;11.00;6.93;;;5.00;99.90;;;;;;5075110;28;20445;-57
2021/03/17 02:37:33;;;;;;;9.43;5.80;;;4.90;99.90;;;;;;5078365;28;20472;-56
2021/03/17 02:40:10;;;;;;;9.40;5.40;;;5.10;99.90;;;;;;5088100;28;20457;-57
2021/03/17 02:42:42;;;;;;;9.23;6.53;;;5.00;99.90;;;;;;5081278;28;20953;-56
2021/03/17 02:45:14;;;;;;;11.30;6.50;;;5.00;99.90;;;;;;5081898;28;20440;-56
2021/03/17 02:47:53;;;;;;;10.07;6.60;;;5.00;99.90;;;;;;5084188;28;20971;-56
2021/03/17 02:50:20;;;;;;;9.83;6.10;;;4.90;99.90;;;;;;5079329;28;20533;-56
2021/03/17 02:52:50;;;;;;;12.90;6.80;;;5.10;99.90;;;;;;5077363;28;20540;-56
2021/03/17 02:55:18;;;;;;;11.90;6.97;;;5.10;99.90;;;;;;5079996;28;20429;-56
2021/03/17 02:57:44;;;;;;;13.13;5.90;;;5.20;99.90;;;;;;5078606;28;20428;-56
2021/03/17 03:00:13;;;;;;;11.27;5.80;;;5.10;99.90;;;;;;5082137;28;20430;-57
2021/03/17 03:02:40;;;;;;;12.27;6.97;;;5.10;99.90;;;;;;5083008;28;20451;-56
2021/03/17 03:05:08;;;;;;;12.60;6.40;;;5.00;99.90;;;;;;5082002;28;20538;-56
2021/03/17 03:07:34;;;;;;;9.33;6.10;;;5.00;99.90;;;;;;5082797;28;20445;-56
2021/03/17 03:10:01;;;;;;;17.23;6.67;;;5.10;99.90;;;;;;5076260;28;20442;-56
2021/03/17 03:12:29;;;;;;;13.07;6.10;;;5.10;99.90;;;;;;5077056;28;20455;-56
2021/03/17 03:14:56;;;;;;;13.20;7.70;;;5.00;99.90;;;;;;5086801;28;20451;-56
2021/03/17 03:17:23;;;;;;;13.60;7.70;;;4.80;99.90;;;;;;5082725;28;20961;-56
2021/03/17 03:19:52;;;;;;;14.33;7.10;;;4.80;99.90;;;;;;5093073;28;20435;-56
2021/03/17 03:22:20;;;;;;;12.80;8.10;;;4.80;99.90;;;;;;5071820;28;20837;-56
2021/03/17 03:24:47;;;;;;;10.47;7.27;;;4.70;99.90;;;;;;5079745;28;20473;-56
2021/03/17 03:27:14;;;;;;;13.87;7.70;;;4.70;99.90;;;;;;5090694;28;20806;-56
2021/03/17 03:29:40;;;;;;;16.03;7.10;;;4.80;99.90;;;;;;5085255;28;20448;-56
2021/03/17 03:32:06;;;;;;;12.17;7.30;;;4.80;99.90;;;;;;5087968;28;21042;-56
2021/03/17 03:34:32;;;;;;;13.67;7.27;;;4.90;99.90;;;;;;5085578;28;20523;-56
2021/03/17 03:36:58;;;;;;;9.00;6.53;;;4.90;99.90;;;;;;5083155;28;20459;-56
2021/03/17 03:39:24;;;;;;;13.03;7.60;;;5.00;99.90;;;;;;5086494;28;20440;-56
2021/03/17 03:41:49;;;;;;;15.90;6.80;;;5.00;99.90;;;;;;5088731;28;20250;-55
2021/03/17 03:44:15;;;;;;;11.20;6.40;;;5.10;99.90;;;;;;5082227;28;20533;-56
2021/03/17 03:46:41;;;;;;;18.10;8.00;;;5.00;99.90;;;;;;5072444;28;20188;-56
2021/03/17 03:49:07;;;;;;;11.83;6.80;;;5.00;99.90;;;;;;5079259;28;20556;-56
2021/03/17 03:51:36;;;;;;;8.97;7.10;;;5.00;99.90;;;;;;5081543;28;20203;-56
2021/03/17 03:54:18;;;;;;;15.43;6.70;;;5.20;99.90;;;;;;5080937;28;20445;-57
2021/03/17 03:56:52;;;;;;;14.90;7.20;;;5.20;99.90;;;;;;5080534;28;20442;-56
2021/03/17 03:59:41;;;;;;;9.30;6.43;;;5.20;99.90;;;;;;5076665;28;20445;-56
2021/03/17 04:02:11;;;;;;;11.33;6.80;;;5.20;99.90;;;;;;5071982;28;20521;-56
2021/03/17 04:04:40;;;;;;;16.43;6.90;;;5.20;99.90;;;;;;5084110;28;20463;-56
2021/03/17 04:07:06;;;;;;;11.73;6.87;;;5.20;99.90;;;;;;5073554;28;20438;-56
2021/03/17 04:09:38;;;;;;;14.23;8.10;;;5.30;99.90;;;;;;5077943;28;20833;-56
2021/03/17 04:12:06;;;;;;;16.80;7.30;;;5.20;99.90;;;;;;5081622;28;20465;-56
2021/03/17 04:14:35;;;;;;;12.50;7.43;;;5.10;99.90;;;;;;5081529;28;20433;-56
2021/03/17 04:17:25;;;;;;;12.60;6.20;;;5.20;99.90;;;;;;5087895;28;20449;-56
2021/03/17 04:19:57;;;;;;;9.97;5.80;;;5.20;99.90;;;;;;5078635;28;20844;-56
2021/03/17 04:22:28;;;;;;;9.50;6.20;;;5.10;99.90;;;;;;5074643;28;20475;-56
2021/03/17 04:24:57;;;;;;;9.93;5.73;;;4.90;99.90;;;;;;5079574;28;20476;-55
2021/03/17 04:27:24;;;;;;;11.60;6.63;;;4.90;99.90;;;;;;5073632;28;20535;-56
2021/03/17 04:29:52;;;;;;;9.57;5.93;;;4.80;99.90;;;;;;5076165;28;20516;-56
2021/03/17 04:32:19;;;;;;;8.73;6.57;;;4.90;99.90;;;;;;5078541;28;20477;-56
2021/03/17 04:34:46;;;;;;;12.30;7.23;;;4.90;99.90;;;;;;5075723;28;20784;-56
2021/03/17 04:37:12;;;;;;;13.40;6.60;;;4.90;99.90;;;;;;5076408;28;20445;-57
2021/03/17 04:39:39;;;;;;;8.53;6.43;;;4.90;99.90;;;;;;5080343;28;20429;-56
2021/03/17 04:42:06;;;;;;;11.60;5.87;;;4.90;99.90;;;;;;5080426;28;20449;-56
2021/03/17 04:44:32;;;;;;;8.60;6.00;;;5.00;99.90;;;;;;5072709;28;20506;-56
2021/03/17 04:46:59;;;;;;;8.13;6.07;;;5.00;99.90;;;;;;5078968;28;20454;-56
2021/03/17 04:49:26;;;;;;;13.53;6.70;;;5.10;99.90;;;;;;5084721;28;20802;-56
2021/03/17 04:51:52;;;;;;;10.27;6.07;;;5.10;99.90;;;;;;5074898;28;21025;-57
2021/03/17 04:54:18;;;;;;;8.43;6.23;;;5.00;99.90;;;;;;5075915;28;20490;-56
2021/03/17 04:56:45;;;;;;;13.13;6.93;;;5.00;99.90;;;;;;5062146;28;20474;-56
2021/03/17 04:59:20;;;;;;;8.90;6.33;;;4.90;99.90;;;;;;5075339;28;20440;-56
2021/03/17 05:01:47;;;;;;;11.60;6.37;;;4.80;99.90;;;;;;5081497;28;20918;-56
2021/03/17 05:04:14;;;;;;;10.10;6.30;;;4.90;99.90;;;;;;5077815;28;20952;-56
2021/03/17 05:06:45;;;;;;;10.10;6.67;;;4.70;99.90;;;;;;5081162;28;20449;-56
2021/03/17 05:09:12;;;;;;;15.10;7.83;;;5.30;99.90;;;;;;5069442;28;20453;-57
2021/03/17 05:11:40;;;;;;;9.03;6.60;;;4.80;99.90;;;;;;5081521;28;20484;-56
2021/03/17 05:14:06;;;;;;;10.50;7.00;;;4.70;99.90;;;;;;5072259;28;20444;-55
2021/03/17 05:16:35;;;;;;;11.17;7.27;;;4.80;99.90;;;;;;5072036;28;20452;-56
2021/03/17 05:19:02;;;;;;;12.27;6.40;;;4.70;99.90;;;;;;5069286;28;20464;-56
2021/03/17 05:21:28;;;;;;;16.50;8.20;;;4.60;99.90;;;;;;5074750;28;20571;-56
2021/03/17 05:23:56;;;;;;;14.50;7.30;;;4.60;99.90;;;;;;5081220;28;20475;-56
2021/03/17 05:26:23;;;;;;;7.57;6.30;;;4.60;99.90;;;;;;5083151;28;20980;-56
2021/03/17 05:28:49;;;;;;;17.07;7.40;;;4.70;99.90;;;;;;5081353;28;20430;-56
2021/03/17 05:31:18;;;;;;;19.60;8.50;;;4.70;99.90;;;;;;5077043;28;20487;-58
2021/03/17 05:33:45;;;;;;;15.23;8.77;;;4.60;99.90;;;;;;5074940;28;20443;-56
2021/03/17 05:36:11;;;;;;;12.57;7.83;;;4.70;99.90;;;;;;5074044;28;20441;-56
2021/03/17 05:38:37;;;;;;;11.73;7.43;;;4.60;99.90;;;;;;5079609;28;20467;-57
2021/03/17 05:41:03;;;;;;;12.23;7.80;;;4.60;99.90;;;;;;5080088;28;20432;-56
2021/03/17 05:43:30;;;;;;;13.27;8.63;;;4.60;99.90;;;;;;5077162;28;20449;-56
2021/03/17 05:45:57;;;;;;;14.90;8.77;;;4.60;99.90;;;;;;5082012;28;20194;-56
2021/03/17 05:48:25;;;;;;;9.17;6.93;;;4.60;99.90;;;;;;5086100;28;20997;-56
2021/03/17 05:50:51;;;;;;;12.77;7.67;;;4.60;99.90;;;;;;5071846;28;20594;-56
2021/03/17 05:53:17;;;;;;;11.17;8.87;;;4.60;99.90;;;;;;5072845;28;20501;-56
2021/03/17 05:55:43;;;;;;;11.90;7.40;;;4.70;99.90;;;;;;5088761;28;20538;-56
2021/03/17 05:58:11;;;;;;;13.43;8.20;;;4.60;99.90;;;;;;5072199;28;20898;-56
2021/03/17 06:00:37;;;;;;;11.67;8.00;;;4.70;99.90;;;;;;5077562;28;20438;-56
2021/03/17 06:03:04;;;;;;;13.20;7.43;;;4.70;99.90;;;;;;5079507;28;20463;-56
2021/03/17 06:05:30;;;;;;;12.30;8.10;;;4.60;99.90;;;;;;5080261;28;20273;-55
2021/03/17 06:08:04;;;;;;;14.37;7.30;;;4.60;99.90;;;;;;5077987;28;20779;-56
2021/03/17 06:10:30;;;;;;;12.27;9.10;;;4.60;99.90;;;;;;5075441;28;20492;-56
2021/03/17 06:13:01;;;;;;;9.57;8.57;;;4.60;99.90;;;;;;5080429;28;20566;-56
2021/03/17 06:15:27;;;;;;;13.07;8.30;;;4.60;99.90;;;;;;5081955;28;20451;-56
2021/03/17 06:17:58;;;;;;;9.80;8.10;;;4.50;99.90;;;;;;5082464;28;20446;-56
2021/03/17 06:20:24;;;;;;;13.00;8.10;;;4.50;99.90;;;;;;5083167;28;20433;-56
2021/03/17 06:22:49;;;;;;;11.40;7.47;;;4.50;99.90;;;;;;5080834;28;20447;-56
2021/03/17 06:25:16;;;;;;;11.10;7.77;;;4.60;99.90;;;;;;5086320;28;20482;-57
2021/03/17 06:27:42;;;;;;;10.17;7.43;;;4.50;99.90;;;;;;5081798;28;20190;-57
2021/03/17 06:30:09;;;;;;;10.50;7.47;;;4.40;99.90;;;;;;5087528;28;20454;-57
2021/03/17 06:32:36;;;;;;;10.97;8.47;;;4.50;99.90;;;;;;5081596;28;20465;-55
2021/03/17 06:35:17;;;;;;;15.83;7.80;;;4.50;99.90;;;;;;5082085;28;20497;-56
2021/03/17 06:37:43;;;;;;;11.63;7.80;;;4.50;99.90;;;;;;5081436;28;20538;-56
2021/03/17 06:40:19;;;;;;;13.70;8.00;;;4.60;99.90;;;;;;5080307;28;20471;-56
2021/03/17 06:42:45;;;;;;;16.63;8.43;;;4.50;99.90;;;;;;5092951;28;20793;-57
2021/03/17 06:45:12;;;;;;;11.50;7.50;;;4.60;99.90;;;;;;5077678;28;20437;-57
2021/03/17 06:47:37;;;;;;;14.73;7.63;;;4.60;99.90;;;;;;5085466;28;20459;-57
2021/03/17 06:50:08;;;;;;;10.57;6.93;;;4.60;99.90;;;;;;5080688;28;20485;-53
2021/03/17 06:52:38;;;;;;;13.07;7.70;;;4.50;99.90;;;;;;5087577;28;20264;-53
2021/03/17 06:55:16;;;;;;;17.90;8.33;;;4.70;99.90;;;;;;5079891;28;20472;-55
2021/03/17 06:57:45;;;;;;;7.90;6.93;;;4.70;99.90;;;;;;5078325;28;20443;-54
2021/03/17 07:00:20;;;;;;;8.23;7.43;;;4.70;99.90;;;;;;5087589;28;20445;-54
2021/03/17 07:03:11;;;;;;;11.37;7.60;;;4.70;99.90;;;;;;5081039;28;20437;-54
2021/03/17 07:05:41;;;;;;;16.87;9.37;;;4.70;99.90;;;;;;5080666;28;20941;-54
2021/03/17 07:08:11;;;;;;;13.43;7.47;;;4.80;99.90;;;;;;5074838;28;20902;-54
2021/03/17 07:10:44;;;;;;;10.20;7.17;;;4.70;99.90;;;;;;5080406;28;20447;-55
2021/03/17 07:13:13;;;;;;;11.37;8.10;;;9.00;99.90;;;;;;5086958;28;20472;-54
2021/03/17 07:15:39;;;;;;;11.27;6.70;;;4.80;99.90;;;;;;5088613;28;20729;-54
2021/03/17 07:18:22;;;;;;;10.40;7.27;;;4.90;99.90;;;;;;5079919;28;20441;-53
2021/03/17 07:20:55;;;;;;;13.60;7.20;;;4.80;99.90;;;;;;5083139;28;21001;-55
2021/03/17 07:23:28;;;;;;;12.73;8.17;;;4.90;99.90;;;;;;5078301;28;20826;-60
2021/03/17 07:26:17;;;;;;;13.90;7.30;;;4.70;99.90;;;;;;5073705;28;20523;-58
2021/03/17 07:28:59;;;;;;;8.23;7.33;;;4.70;99.90;;;;;;5069388;28;20520;-59
2021/03/17 07:31:36;;;;;;;10.87;6.83;;;4.60;99.90;;;;;;5071538;28;20464;-60
2021/03/17 07:34:14;;;;;;;9.30;6.77;;;4.70;99.90;;;;;;5070740;28;20436;-59
2021/03/17 07:36:45;;;;;;;9.53;7.20;;;4.80;99.90;;;;;;5070924;28;20448;-59
2021/03/17 07:39:14;;;;;;;10.17;6.67;;;4.90;99.90;;;;;;5089987;28;20448;-58
2021/03/17 07:41:40;;;;;;;18.13;9.20;;;4.90;99.90;;;;;;5092894;28;20440;-61
2021/03/17 07:44:09;;;;;;;10.13;7.77;;;5.00;99.90;;;;;;5092596;28;20433;-60
2021/03/17 07:46:36;;;;;;;10.13;7.80;;;4.80;99.90;;;;;;5092722;28;20639;-58
2021/03/17 07:49:05;;;;;;;13.10;8.80;;;4.70;99.90;;;;;;5093007;28;20436;-60
2021/03/17 07:51:34;;;;;;;10.83;7.50;;;4.80;99.90;;;;;;5073481;28;20463;-58
2021/03/17 07:54:01;;;;;;;10.07;7.40;;;4.90;99.90;;;;;;5070319;28;20533;-57
2021/03/17 07:56:27;;;;;;;9.47;6.67;;;4.80;99.90;;;;;;5069787;28;20429;-59
2021/03/17 07:58:54;;;;;;;14.67;6.77;;;4.70;99.90;;;;;;5071662;28;20495;-58
2021/03/17 08:01:22;;;;;;;14.90;7.17;;;4.70;99.90;;;;;;5072196;28;20698;-59
2021/03/17 08:03:49;;;;;;;15.37;8.27;;;4.80;99.90;;;;;;5072951;28;20495;-59
2021/03/17 08:06:16;;;;;;;11.27;8.13;;;4.80;99.90;;;;;;5071398;28;21008;-58
2021/03/17 08:08:43;;;;;;;14.87;8.43;;;4.90;99.90;;;;;;5073190;28;20436;-58
2021/03/17 08:11:12;;;;;;;13.03;7.80;;;5.00;99.90;;;;;;5081401;28;20453;-61
2021/03/17 08:13:39;;;;;;;12.33;9.17;;;5.00;99.90;;;;;;5074523;28;20472;-59
2021/03/17 08:16:05;;;;;;;12.33;7.73;;;4.80;99.90;;;;;;5068634;28;20445;-61
2021/03/17 08:18:41;;;;;;;13.03;9.73;;;4.80;99.90;;;;;;5069178;28;20449;-58
2021/03/17 08:21:08;;;;;;;12.90;8.00;;;4.90;99.90;;;;;;5073505;28;20441;-59
2021/03/17 08:23:51;;;;;;;13.37;8.57;;;5.20;99.90;;;;;;5071162;28;20974;-58
2021/03/17 08:26:22;;;;;;;15.07;8.80;;;5.20;99.90;;;;;;5068854;28;20527;-59
2021/03/17 08:28:51;;;;;;;11.10;7.97;;;5.20;99.90;;;;;;5071403;28;21832;-58
2021/03/17 08:31:37;;;;;;;16.47;8.07;;;5.30;99.90;;;;;;5070163;28;20438;-57
2021/03/17 08:34:18;;;;;;;18.93;10.10;;;5.10;99.90;;;;;;5071563;28;20502;-58
2021/03/17 08:36:44;;;;;;;14.40;8.93;;;5.20;99.90;;;;;;5069076;28;20494;-59
2021/03/17 08:39:09;;;;;;;15.63;8.67;;;5.30;99.90;;;;;;5068811;28;20441;-59
2021/03/17 08:41:46;;;;;;;13.57;9.13;;;5.40;99.90;;;;;;5071452;28;20791;-56
2021/03/17 08:44:23;;;;;;;13.00;8.20;;;5.20;99.90;;;;;;5076693;28;20534;-58
2021/03/17 08:46:50;;;;;;;17.97;9.27;;;5.30;99.90;;;;;;5091276;28;20436;-57
2021/03/17 08:49:36;;;;;;;18.93;9.37;;;5.30;99.90;;;;;;5073129;28;20449;-59
2021/03/17 08:52:07;;;;;;;12.47;8.90;;;4.80;99.90;;;;;;5068319;28;20461;-59
2021/03/17 08:54:33;;;;;;;15.23;9.43;;;5.10;99.90;;;;;;5069739;28;20494;-59
2021/03/17 08:57:00;;;;;;;12.77;8.90;;;5.10;99.90;;;;;;5071683;28;20429;-59
2021/03/17 08:59:45;;;;;;;13.67;10.00;;;5.20;99.90;;;;;;5072300;28;20187;-58
2021/03/17 09:02:24;;;;;;;18.80;10.30;;;5.20;99.90;;;;;;5072489;28;20453;-58
2021/03/17 09:04:59;;;;;;;17.47;10.93;;;5.10;99.90;;;;;;5071105;28;20447;-57
2021/03/17 09:07:30;;;;;;;21.03;11.90;;;5.00;99.90;;;;;;5069137;28;20953;-58
2021/03/17 09:09:57;;;;;;;21.20;11.83;;;4.90;99.90;;;;;;5072385;28;20510;-57
2021/03/17 09:12:26;;;;;;;17.00;11.27;;;5.00;99.90;;;;;;5091414;28;20820;-58
2021/03/17 09:15:11;;;;;;;19.93;12.60;;;5.00;99.90;;;;;;5091280;28;20435;-57
2021/03/17 09:17:47;;;;;;;23.17;12.17;;;5.00;99.90;;;;;;5091474;28;20432;-59
2021/03/17 09:20:24;;;;;;;17.27;12.07;;;5.10;99.90;;;;;;5089188;28;20443;-58
2021/03/17 09:23:02;;;;;;;13.90;11.00;;;5.10;99.90;;;;;;5076328;28;20532;-58
2021/03/17 09:25:35;;;;;;;16.87;11.30;;;5.10;99.90;;;;;;5091029;28;20451;-58
2021/03/17 09:28:07;;;;;;;18.20;11.77;;;5.10;99.90;;;;;;5089276;28;20487;-58
2021/03/17 09:30:49;;;;;;;18.27;11.40;;;5.30;99.90;;;;;;5090600;28;20444;-58
2021/03/17 09:33:35;;;;;;;18.43;11.00;;;5.30;99.90;;;;;;5082431;28;20460;-59
2021/03/17 09:36:25;;;;;;;14.00;10.53;;;5.30;99.90;;;;;;5068393;28;20935;-58
2021/03/17 09:38:53;;;;;;;14.17;10.83;;;5.20;99.90;;;;;;5067296;28;20434;-58
2021/03/17 09:41:22;;;;;;;19.37;10.77;;;5.50;99.90;;;;;;5074465;28;20461;-60
2021/03/17 09:43:52;;;;;;;15.47;11.10;;;5.30;99.90;;;;;;5091324;28;20437;-59
2021/03/17 09:46:23;;;;;;;15.73;10.40;;;5.40;99.90;;;;;;5090555;28;20436;-59
2021/03/17 09:48:51;;;;;;;23.87;11.10;;;5.50;99.90;;;;;;5089534;28;20523;-58
2021/03/17 09:51:20;;;;;;;16.33;9.90;;;5.50;99.90;;;;;;5089095;28;20501;-57
2021/03/17 09:53:47;;;;;;;20.67;10.50;;;5.40;99.90;;;;;;5090828;28;20443;-59
2021/03/17 09:56:14;;;;;;;18.10;10.67;;;5.50;99.90;;;;;;5090410;28;20441;-58
2021/03/17 09:58:40;;;;;;;16.87;10.63;;;5.50;99.90;;;;;;5090651;28;20463;-59
2021/03/17 10:01:12;;;;;;;15.57;12.27;;;5.60;99.90;;;;;;5090125;28;20493;-59
2021/03/17 10:03:46;;;;;;;15.20;9.70;;;5.50;99.90;;;;;;5084875;28;20461;-58
2021/03/17 10:06:13;;;;;;;14.43;9.60;;;5.50;99.90;;;;;;5075526;28;20520;-59
2021/03/17 10:08:39;;;;;;;16.03;10.73;;;5.60;99.90;;;;;;5068560;28;20525;-59
2021/03/17 10:11:12;;;;;;;18.20;9.97;;;5.70;99.90;;;;;;5068781;28;20525;-58
2021/03/17 10:13:38;;;;;;;17.40;11.57;;;5.80;99.90;;;;;;5064677;28;20532;-59
2021/03/17 10:16:04;;;;;;;15.70;9.53;;;5.70;99.90;;;;;;5069183;28;20505;-59
2021/03/17 10:18:30;;;;;;;18.70;10.53;;;5.70;99.90;;;;;;5070137;28;20194;-58
2021/03/17 10:20:56;;;;;;;20.07;10.57;;;5.50;99.90;;;;;;5070419;28;20696;-60
2021/03/17 10:23:23;;;;;;;19.90;11.30;;;5.70;99.90;;;;;;5069876;28;20738;-58
2021/03/17 10:25:49;;;;;;;16.63;11.70;;;5.60;99.90;;;;;;5070337;28;20433;-58
2021/03/17 10:28:15;;;;;;;15.13;11.47;;;5.60;99.90;;;;;;5068620;28;20438;-59
2021/03/17 10:30:48;;;;;;;16.60;10.83;;;5.60;99.90;;;;;;5069055;28;20433;-58
2021/03/17 10:33:20;;;;;;;19.77;10.43;;;5.70;99.90;;;;;;5070140;28;20985;-59
2021/03/17 10:35:47;;;;;;;20.43;11.07;;;5.60;99.90;;;;;;5068382;28;20438;-59
2021/03/17 10:38:13;;;;;;;15.60;10.57;;;5.60;99.90;;;;;;5069969;28;20426;-58
2021/03/17 10:40:39;;;;;;;14.33;10.30;;;;;;;;;;5069739;28;20440;-59
2021/03/17 10:43:05;;;;;;;16.27;11.30;;;5.60;99.90;;;;;;5068705;28;20466;-59
2021/03/17 10:45:47;;;;;;;15.00;10.40;;;5.50;99.90;;;;;;5069429;28;20838;-57
2021/03/17 10:48:18;;;;;;;15.17;10.33;;;5.50;99.90;;;;;;5070088;28;20190;-59
2021/03/17 10:50:45;;;;;;;14.23;9.87;;;5.70;99.90;;;;;;5069851;28;20457;-58
2021/03/17 10:53:27;;;;;;;14.80;9.63;;;5.90;99.90;;;;;;5069966;28;20476;-59
2021/03/17 10:55:55;;;;;;;19.20;10.70;;;6.10;99.90;;;;;;5068853;28;20479;-59
2021/03/17 10:58:22;;;;;;;12.37;10.07;;;6.10;99.90;;;;;;5070340;28;20441;-58
2021/03/17 11:00:53;;;;;;;15.20;10.30;;;6.20;99.90;;;;;;5073051;28;20428;-57
2021/03/17 11:03:27;;;;;;;20.13;10.70;;;6.30;99.90;;;;;;5072861;28;20831;-58
2021/03/17 11:06:12;;;;;;;15.43;10.00;;;6.50;99.90;;;;;;5069347;28;20522;-59
2021/03/17 11:08:37;;;;;;;13.10;9.30;;;6.50;99.90;;;;;;5071411;28;20645;-59
2021/03/17 11:11:05;;;;;;;12.73;8.50;;;6.50;99.90;;;;;;5073431;28;20437;-58
2021/03/17 11:13:32;;;;;;;14.17;8.53;;;6.50;97.00;;;;;;5072977;28;20255;-57
2021/03/17 11:16:02;;;;;;;14.90;8.60;;;6.40;90.20;;;;;;5077183;28;20842;-58
2021/03/17 11:18:36;;;;;;;14.73;9.00;;;6.50;63.90;;;;;;5094006;28;20455;-58
2021/03/17 11:21:14;;;;;;;14.77;9.57;;;6.30;67.50;;;;;;5092114;28;20432;-57
2021/03/17 11:23:41;;;;;;;13.50;9.90;;;6.20;91.50;;;;;;5073063;28;20465;-58
2021/03/17 11:26:17;;;;;;;13.43;9.67;;;6.20;90.70;;;;;;5072896;28;20447;-57
2021/03/17 11:28:42;;;;;;;15.03;10.33;;;6.20;88.40;;;;;;5073174;28;20447;-57
2021/03/17 11:31:10;;;;;;;11.87;8.97;;;6.30;93.40;;;;;;5072665;28;20814;-58
2021/03/17 11:33:36;;;;;;;12.00;9.20;;;6.50;96.50;;;;;;5079001;28;20218;-59
2021/03/17 11:36:04;;;;;;;15.17;8.90;;;6.30;97.10;;;;;;5072637;28;20457;-59
2021/03/17 11:38:30;;;;;;;14.60;9.47;;;6.10;99.90;;;;;;5062142;28;20587;-59
2021/03/17 11:41:00;;;;;;;15.80;10.73;;;5.90;99.90;;;;;;5092904;28;20714;-60
2021/03/17 11:43:31;;;;;;;12.17;9.93;;;6.00;99.90;;;;;;5088865;28;20325;-58
2021/03/17 11:45:59;;;;;;;14.30;9.80;;;6.00;99.90;;;;;;5070871;28;20567;-59
2021/03/17 11:48:30;;;;;;;13.40;8.77;;;5.90;99.90;;;;;;5071711;28;20477;-60
2021/03/17 11:50:58;;;;;;;15.00;9.50;;;5.80;99.90;;;;;;5075040;28;20969;-60
2021/03/17 11:53:23;;;;;;;16.40;10.50;;;5.70;99.90;;;;;;5092897;28;20460;-59
2021/03/17 11:55:51;;;;;;;14.73;10.07;;;5.70;99.90;;;;;;5093087;28;20432;-57
2021/03/17 11:58:16;;;;;;;12.10;9.67;;;5.80;99.90;;;;;;5093144;28;20707;-59
2021/03/17 12:00:42;;;;;;;15.47;9.77;;;5.70;99.90;;;;;;5092940;28;20565;-58
2021/03/17 12:03:11;;;;;;;14.33;10.40;;;5.60;99.90;;;;;;5091150;28;20490;-57
2021/03/17 12:05:36;;;;;;;22.17;10.30;;;5.70;99.90;;;;;;5092742;28;20459;-59
2021/03/17 12:08:03;;;;;;;16.13;10.50;;;5.80;99.90;;;;;;5090743;28;20550;-59
2021/03/17 12:10:29;;;;;;;16.20;9.23;;;5.60;99.90;;;;;;5091540;28;20437;-58
2021/03/17 12:12:55;;;;;;;16.63;11.37;;;5.70;99.90;;;;;;5092293;28;20464;-59
2021/03/17 12:15:23;;;;;;;12.60;9.00;;;5.70;99.90;;;;;;5075647;28;21018;-59
2021/03/17 12:17:49;;;;;;;20.07;11.37;;;5.70;99.90;;;;;;5072053;28;20438;-59
2021/03/17 12:20:17;;;;;;;17.73;10.63;;;5.70;99.90;;;;;;5071787;28;20426;-58
2021/03/17 12:22:42;;;;;;;16.53;11.70;;;5.50;99.90;;;;;;5071906;28;20469;-59
2021/03/17 12:25:10;;;;;;;19.50;12.07;;;5.50;99.90;;;;;;5071697;28;20516;-59
2021/03/17 12:27:36;;;;;;;20.70;11.20;;;5.50;99.90;;;;;;5072087;28;20171;-58
2021/03/17 12:30:24;;;;;;;20.50;12.13;;;5.50;99.90;;;;;;5072080;28;20430;-60
2021/03/17 12:32:51;;;;;;;15.73;10.97;;;5.50;99.90;;;;;;5066867;28;20461;-58
2021/03/17 12:35:19;;;;;;;21.10;12.17;;;5.50;99.90;;;;;;5071696;28;20443;-59
2021/03/17 12:37:47;;;;;;;23.97;13.97;;;5.60;99.90;;;;;;5070752;28;20987;-58
2021/03/17 12:40:15;;;;;;;19.27;11.77;;;5.60;99.90;;;;;;5073183;28;20475;-58
2021/03/17 12:42:41;;;;;;;20.33;12.00;;;5.70;99.90;;;;;;5091992;28;20482;-57
2021/03/17 12:45:10;;;;;;;15.17;10.70;;;5.80;99.90;;;;;;5073838;28;20440;-59
2021/03/17 12:47:37;;;;;;;18.00;11.97;;;5.70;99.90;;;;;;5089847;28;20496;-60
2021/03/17 12:50:09;;;;;;;18.93;11.33;;;7.30;99.90;;;;;;5071911;28;20901;-56
2021/03/17 12:52:35;;;;;;;19.37;12.90;;;5.90;99.90;;;;;;5071473;28;20906;-58
2021/03/17 12:55:00;;;;;;;16.67;12.13;;;5.90;99.90;;;;;;5071544;28;20532;-59
2021/03/17 12:57:26;;;;;;;18.73;10.80;;;5.90;99.90;;;;;;5069620;28;20279;-59
2021/03/17 12:59:54;;;;;;;22.13;11.70;;;6.00;99.90;;;;;;5071416;28;20203;-58